首页
METAR-TAF:

METAR-TAF

机场 :

卡斯珀, 怀俄明州, 美国

纬度: 42-53-51N, 经度: 106-28-23W, 海拔: 1630米

当前天气观测

该预报发布于40分钟前的15:53 UTC
风速9节,风向西
温度 -5°C
湿度 79%
气压 1014 hPa
能見度: 16.1公里
少量云层高于3500英尺
多云层高于4400英尺
阴天层高于6500英尺

METAR: KCPR 171553Z 27009KT 10SM FEW035 BKN044 OVC065 M05/M08 A2995 RMK AO2 SLP170 T10501083

时间: 09:33 (16:33 UTC)

预报

该预报发布于5小时和0分钟前的11:33 UTC
预报有效从17日的 12点(UTC)到 18日的 12点(UTC)
风速5节,风向多变
能見度: 10公里
散云层高于2500英尺
阴天层高于4500英尺
附近有阵雨
短暂存在
从 17日的 12点(UTC)到 17日的 15点(UTC)
能見度: 3.2公里
多云层高于2500英尺
小雪
从 17日的 1600点(UTC)
风速9节,风向西北
能見度: 10公里
多云层高于7000英尺
从 18日的 0600点(UTC)
风速10节,风向西南
能見度: 10公里
少量云层高于20000英尺

TAF: KCPR 171133Z 1712/1812 VRB05KT P6SM VCSH SCT025 OVC045 TEMPO 1712/1715 2SM -SN BKN025 FM171600 32009KT P6SM BKN070 FM180600 23010KT P6SM FEW200

超过4000个机场的气象观测和天气预报(METAR&TAF报告)。

可查询的气象台以黄色和红色小点在地图上表示。

将鼠标移到小点上方,可查看气象台名称。

然后点击查看天气观测和预报。

如需切换地图:点击带黑十字的绿色按钮放大地图;点击带横线的绿色按钮缩小地图;或者点击绿色箭头查看邻近地区的地图。


METAR-TAF: